createdAt,value
2023-02-07T00:02:03.952Z,9.93
2023-02-07T00:04:34.370Z,16.57
2023-02-07T00:07:06.967Z,14.80
2023-02-07T00:09:37.676Z,12.60
2023-02-07T00:12:07.998Z,14.23
2023-02-07T00:14:38.260Z,15.40
2023-02-07T00:17:08.618Z,16.07
2023-02-07T00:19:38.714Z,15.33
2023-02-07T00:22:11.312Z,17.47
2023-02-07T00:24:41.282Z,18.90
2023-02-07T00:27:11.505Z,20.90
2023-02-07T00:29:41.828Z,15.27
2023-02-07T00:32:12.086Z,17.03
2023-02-07T00:34:42.472Z,13.83
2023-02-07T00:37:15.084Z,15.40
2023-02-07T00:39:45.086Z,14.23
2023-02-07T00:42:15.090Z,19.40
2023-02-07T00:44:45.078Z,13.97
2023-02-07T00:47:15.306Z,17.63
2023-02-07T00:49:45.256Z,13.43
2023-02-07T00:52:17.795Z,14.37
2023-02-07T00:54:48.020Z,11.17
2023-02-07T00:57:18.280Z,18.47
2023-02-07T00:59:49.764Z,18.57
2023-02-07T01:02:20.711Z,20.07
2023-02-07T01:04:50.766Z,19.77
2023-02-07T01:07:23.347Z,20.90
2023-02-07T01:09:53.605Z,22.40
2023-02-07T01:12:23.834Z,18.63
2023-02-07T01:14:54.285Z,27.60
2023-02-07T01:17:24.697Z,15.53
2023-02-07T01:19:59.646Z,19.20
2023-02-07T01:22:32.195Z,15.57
2023-02-07T01:25:02.422Z,21.37
2023-02-07T01:27:32.854Z,19.37
2023-02-07T01:30:02.991Z,19.13
2023-02-07T01:32:35.314Z,16.67
2023-02-07T01:35:06.019Z,16.40
2023-02-07T01:37:38.651Z,15.17
2023-02-07T01:40:11.238Z,15.80
2023-02-07T01:42:41.338Z,20.23
2023-02-07T01:45:25.207Z,17.10
2023-02-07T01:47:57.076Z,20.27
2023-02-07T01:50:29.315Z,16.67
2023-02-07T01:53:05.025Z,19.80
2023-02-07T01:55:39.993Z,16.23
2023-02-07T01:58:10.865Z,17.50
2023-02-07T02:00:41.159Z,16.47
2023-02-07T02:03:11.263Z,14.63
2023-02-07T02:05:42.711Z,18.50
2023-02-07T02:08:15.739Z,17.03
2023-02-07T02:11:05.450Z,19.57
2023-02-07T02:13:43.538Z,18.87
2023-02-07T02:16:23.120Z,17.50
2023-02-07T02:19:29.271Z,18.23
2023-02-07T02:22:27.339Z,21.60
2023-02-07T02:25:30.207Z,20.83
2023-02-07T02:28:27.089Z,16.70
2023-02-07T02:34:50.798Z,19.03
2023-02-07T02:37:29.741Z,24.70
2023-02-07T02:40:07.341Z,15.30
2023-02-07T02:42:42.790Z,18.93
2023-02-07T02:45:16.823Z,16.70
2023-02-07T02:47:51.299Z,15.48
2023-02-07T02:52:56.429Z,16.52
2023-02-07T02:55:52.509Z,17.33
2023-02-07T02:58:32.743Z,15.17
2023-02-07T03:01:11.885Z,18.60
2023-02-07T03:04:07.329Z,23.33
2023-02-07T03:06:52.575Z,19.23
2023-02-07T03:09:33.155Z,23.70
2023-02-07T03:12:16.409Z,16.20
2023-02-07T03:14:55.873Z,19.97
2023-02-07T03:17:30.834Z,20.40
2023-02-07T03:20:08.499Z,22.43
2023-02-07T03:22:42.586Z,20.80
2023-02-07T03:25:14.787Z,27.67
2023-02-07T03:27:45.554Z,25.30
2023-02-07T03:30:19.380Z,21.17
2023-02-07T03:32:58.112Z,21.65
2023-02-07T03:35:30.295Z,19.33
2023-02-07T03:38:04.846Z,20.93
2023-02-07T03:40:41.091Z,20.10
2023-02-07T03:43:14.134Z,23.87
2023-02-07T03:45:44.954Z,22.53
2023-02-07T03:48:15.383Z,21.40
2023-02-07T03:50:47.676Z,22.33
2023-02-07T03:53:20.216Z,19.60
2023-02-07T03:55:50.431Z,19.53
2023-02-07T03:58:20.485Z,20.50
2023-02-07T04:00:50.825Z,20.17
2023-02-07T04:03:23.624Z,18.17
2023-02-07T04:05:53.942Z,22.47
2023-02-07T04:08:26.782Z,17.90
2023-02-07T04:11:01.168Z,21.73
2023-02-07T04:16:01.883Z,21.53
2023-02-07T04:18:31.913Z,16.80
2023-02-07T04:21:05.480Z,21.73
2023-02-07T04:23:38.662Z,33.25
2023-02-07T04:26:08.723Z,17.97
2023-02-07T04:28:38.700Z,20.63
2023-02-07T04:31:08.952Z,18.43
2023-02-07T04:33:39.226Z,21.60
2023-02-07T04:36:10.298Z,23.50
2023-02-07T04:38:43.948Z,24.97
2023-02-07T04:41:14.110Z,21.20
2023-02-07T04:43:44.372Z,20.67
2023-02-07T04:46:15.220Z,26.37
2023-02-07T04:48:45.595Z,27.10
2023-02-07T04:51:15.814Z,20.40
2023-02-07T04:53:48.921Z,27.33
2023-02-07T04:56:18.900Z,21.57
2023-02-07T04:58:49.133Z,20.37
2023-02-07T05:01:19.526Z,20.17
2023-02-07T05:03:49.548Z,22.17
2023-02-07T05:06:19.782Z,22.23
2023-02-07T05:08:52.355Z,20.27
2023-02-07T05:11:22.586Z,23.27
2023-02-07T05:13:53.351Z,22.57
2023-02-07T05:16:23.639Z,20.97
2023-02-07T05:18:54.093Z,28.57
2023-02-07T05:21:24.406Z,29.40
2023-02-07T05:23:57.338Z,24.30
2023-02-07T05:26:27.332Z,18.23
2023-02-07T05:28:57.318Z,21.50
2023-02-07T05:31:48.278Z,29.07
2023-02-07T05:34:15.908Z,24.47
2023-02-07T05:36:46.457Z,35.93
2023-02-07T05:39:19.308Z,26.23
2023-02-07T05:41:49.799Z,21.77
2023-02-07T05:44:20.198Z,20.67
2023-02-07T05:46:52.557Z,24.47
2023-02-07T05:49:22.836Z,23.53
2023-02-07T05:51:53.321Z,25.67
2023-02-07T05:54:26.212Z,26.47
2023-02-07T05:56:56.432Z,23.60
2023-02-07T05:59:26.713Z,26.70
2023-02-07T06:01:57.004Z,28.77
2023-02-07T06:04:27.262Z,19.27
2023-02-07T06:06:57.247Z,18.43
2023-02-07T06:09:30.182Z,20.43
2023-02-07T06:12:00.460Z,21.13
2023-02-07T06:14:31.119Z,19.73
2023-02-07T06:17:01.294Z,23.97
2023-02-07T06:19:31.316Z,17.80
2023-02-07T06:22:01.768Z,19.37
2023-02-07T06:24:34.339Z,18.07
2023-02-07T06:27:04.619Z,26.63
2023-02-07T06:29:34.896Z,20.67
2023-02-07T06:32:04.925Z,19.43
2023-02-07T06:34:34.886Z,23.13
2023-02-07T06:37:05.956Z,21.57
2023-02-07T06:39:38.589Z,16.90
2023-02-07T06:42:08.638Z,19.83
2023-02-07T06:44:38.889Z,28.27
2023-02-07T06:47:09.449Z,28.13
2023-02-07T06:49:39.865Z,19.53
2023-02-07T06:52:10.104Z,22.53
2023-02-07T06:54:42.740Z,23.50
2023-02-07T06:57:13.090Z,22.33
2023-02-07T06:59:43.193Z,22.10
2023-02-07T07:02:14.156Z,21.67
2023-02-07T07:04:44.612Z,19.87
2023-02-07T07:07:14.780Z,20.43
2023-02-07T07:09:47.372Z,21.57
2023-02-07T07:12:17.954Z,24.20
2023-02-07T07:14:47.928Z,25.50
2023-02-07T07:17:18.434Z,21.83
2023-02-07T07:19:48.827Z,17.50
2023-02-07T07:22:21.199Z,21.47
2023-02-07T07:24:53.946Z,17.30
2023-02-07T07:27:25.289Z,21.63
2023-02-07T07:29:55.701Z,17.30
2023-02-07T07:32:33.894Z,21.60
2023-02-07T07:35:04.936Z,22.30
2023-02-07T07:37:35.245Z,24.40
2023-02-07T07:40:10.244Z,19.30
2023-02-07T07:42:40.292Z,20.65
2023-02-07T07:45:24.082Z,29.30
2023-02-07T07:47:54.233Z,27.03
2023-02-07T07:50:24.498Z,32.23
2023-02-07T07:52:54.764Z,24.93
2023-02-07T07:55:27.667Z,21.47
2023-02-07T07:57:57.973Z,26.97
2023-02-07T08:00:28.352Z,20.07
2023-02-07T08:02:58.405Z,20.00
2023-02-07T08:05:28.732Z,22.33
2023-02-07T08:07:59.004Z,20.17
2023-02-07T08:10:31.740Z,25.53
2023-02-07T08:13:01.925Z,24.90
2023-02-07T08:15:32.244Z,20.17
2023-02-07T08:18:02.383Z,25.67
2023-02-07T08:20:32.759Z,23.80
2023-02-07T08:23:03.512Z,27.90
2023-02-07T08:25:36.155Z,23.63
2023-02-07T08:28:06.751Z,23.23
2023-02-07T08:30:37.304Z,27.20
2023-02-07T08:33:07.370Z,19.57
2023-02-07T08:35:37.597Z,19.00
2023-02-07T08:38:07.957Z,29.40
2023-02-07T08:40:41.314Z,20.67
2023-02-07T08:43:12.592Z,17.30
2023-02-07T08:45:43.045Z,19.60
2023-02-07T08:48:13.693Z,23.90
2023-02-07T08:50:43.783Z,23.13
2023-02-07T08:53:13.959Z,24.37
2023-02-07T08:55:46.698Z,17.30
2023-02-07T08:58:18.455Z,21.17
2023-02-07T09:00:48.782Z,17.63
2023-02-07T09:03:18.996Z,21.03
2023-02-07T09:05:49.134Z,15.80
2023-02-07T09:08:19.559Z,16.33
2023-02-07T09:10:53.514Z,15.20
2023-02-07T09:13:23.914Z,24.05
2023-02-07T09:15:57.594Z,21.10
2023-02-07T09:18:28.646Z,18.77
2023-02-07T09:20:58.962Z,19.73
2023-02-07T09:23:29.180Z,19.50
2023-02-07T09:26:04.438Z,16.33
2023-02-07T09:28:35.446Z,17.70
2023-02-07T09:31:11.612Z,19.00
2023-02-07T09:33:42.207Z,18.43
2023-02-07T09:36:20.399Z,15.90
2023-02-07T09:38:51.713Z,18.73
2023-02-07T09:41:35.352Z,21.47
2023-02-07T09:44:10.244Z,14.47
2023-02-07T09:46:44.794Z,24.10
2023-02-07T09:51:49.536Z,16.47
2023-02-07T09:54:25.180Z,17.83
2023-02-07T09:57:01.541Z,16.80
2023-02-07T09:59:49.700Z,19.70
2023-02-07T10:02:21.966Z,14.90
2023-02-07T10:04:52.775Z,12.57
2023-02-07T10:07:22.863Z,16.67
2023-02-07T10:09:53.010Z,17.70
2023-02-07T10:12:53.990Z,13.67
2023-02-07T10:15:44.805Z,22.43
2023-02-07T10:18:31.255Z,19.37
2023-02-07T10:21:08.014Z,12.80
2023-02-07T10:23:50.097Z,13.00
2023-02-07T10:26:26.318Z,14.03
2023-02-07T10:29:20.614Z,14.50
2023-02-07T10:31:54.002Z,12.02
2023-02-07T10:34:26.394Z,12.03
2023-02-07T10:37:00.330Z,13.67
2023-02-07T10:39:35.007Z,12.40
2023-02-07T10:42:04.994Z,15.67
2023-02-07T10:44:38.600Z,12.80
2023-02-07T10:47:09.903Z,14.07
2023-02-07T10:49:40.795Z,12.03
2023-02-07T10:52:30.333Z,14.70
2023-02-07T10:55:02.070Z,14.70
2023-02-07T10:57:33.775Z,14.37
2023-02-07T11:00:10.937Z,12.13
2023-02-07T11:02:52.131Z,15.57
2023-02-07T11:05:40.060Z,13.23
2023-02-07T11:08:24.763Z,13.30
2023-02-07T11:10:57.182Z,14.65
2023-02-07T11:13:29.523Z,13.53
2023-02-07T11:16:07.370Z,11.80
2023-02-07T11:18:45.040Z,13.17
2023-02-07T11:21:31.918Z,11.40
2023-02-07T11:24:04.794Z,11.40
2023-02-07T11:26:36.277Z,9.07
2023-02-07T11:29:10.889Z,11.67
2023-02-07T11:34:41.153Z,9.65
2023-02-07T11:37:20.949Z,10.65
2023-02-07T11:39:52.571Z,8.15
2023-02-07T11:42:32.356Z,7.88
2023-02-07T11:45:08.189Z,12.23
2023-02-07T11:47:40.760Z,14.00
2023-02-07T11:50:19.368Z,14.95
2023-02-07T11:52:55.854Z,8.55
2023-02-07T11:55:28.776Z,9.45
2023-02-07T11:58:00.358Z,10.02
2023-02-07T12:00:31.663Z,11.65
2023-02-07T12:03:12.871Z,10.00
2023-02-07T12:05:46.341Z,9.75
2023-02-07T12:08:20.868Z,9.03
2023-02-07T12:13:25.461Z,8.88
2023-02-07T12:16:00.592Z,14.93
2023-02-07T12:18:37.520Z,12.48
2023-02-07T12:21:13.745Z,13.45
2023-02-07T12:23:49.445Z,12.20
2023-02-07T12:26:25.587Z,11.02
2023-02-07T12:29:13.896Z,11.20
2023-02-07T12:31:53.656Z,9.60
2023-02-07T12:34:33.529Z,11.18
2023-02-07T12:37:08.030Z,35.50
2023-02-07T12:42:27.160Z,14.90
2023-02-07T12:45:00.883Z,12.02
2023-02-07T12:47:42.466Z,11.60
2023-02-07T12:50:30.684Z,20.75
2023-02-07T12:53:09.197Z,12.15
2023-02-07T12:55:49.602Z,13.63
2023-02-07T12:58:31.629Z,9.07
2023-02-07T13:01:06.139Z,7.50
2023-02-07T13:06:30.355Z,9.95
2023-02-07T13:09:07.095Z,8.63
2023-02-07T13:11:41.662Z,11.48
2023-02-07T13:14:25.059Z,8.70
2023-02-07T13:17:08.726Z,8.73
2023-02-07T13:19:47.024Z,8.70
2023-02-07T13:22:30.431Z,9.65
2023-02-07T13:25:02.639Z,7.38
2023-02-07T13:27:34.105Z,10.30
2023-02-07T13:30:04.626Z,8.43
2023-02-07T13:32:35.164Z,7.88
2023-02-07T13:35:10.105Z,11.80
2023-02-07T13:37:52.364Z,15.95
2023-02-07T13:40:34.303Z,9.80
2023-02-07T13:43:10.181Z,8.63
2023-02-07T13:45:49.970Z,10.45
2023-02-07T13:48:29.388Z,9.25
2023-02-07T13:51:05.796Z,9.85
2023-02-07T13:53:49.746Z,12.48
2023-02-07T13:56:32.264Z,11.02
2023-02-07T13:59:15.271Z,11.63
2023-02-07T14:01:52.746Z,8.57
2023-02-07T14:04:24.769Z,7.35
2023-02-07T14:07:12.027Z,10.05
2023-02-07T14:09:49.638Z,12.45
2023-02-07T14:12:24.032Z,13.90
2023-02-07T14:17:59.558Z,10.20
2023-02-07T14:20:51.891Z,9.30
2023-02-07T14:23:23.108Z,11.55
2023-02-07T14:25:55.664Z,13.23
2023-02-07T14:28:37.000Z,8.95
2023-02-07T14:31:24.470Z,22.45
2023-02-07T14:34:12.063Z,11.30
2023-02-07T14:36:42.684Z,10.77
2023-02-07T14:39:31.283Z,10.07
2023-02-07T14:42:15.540Z,10.90
2023-02-07T14:44:48.326Z,13.73
2023-02-07T14:47:25.024Z,10.90
2023-02-07T14:49:59.465Z,16.83
2023-02-07T14:55:05.544Z,21.70
2023-02-07T14:57:52.410Z,16.63
2023-02-07T15:00:31.479Z,50.38
2023-02-07T15:03:05.166Z,11.30
2023-02-07T15:05:36.938Z,9.32
2023-02-07T15:08:18.835Z,10.80
2023-02-07T15:10:55.357Z,15.63
2023-02-07T15:13:31.299Z,20.75
2023-02-07T15:16:04.359Z,13.13
2023-02-07T15:18:37.686Z,27.30
2023-02-07T15:21:08.443Z,22.20
2023-02-07T15:23:39.397Z,11.10
2023-02-07T15:26:10.912Z,14.77
2023-02-07T15:28:44.487Z,16.75
2023-02-07T15:31:16.532Z,12.63
2023-02-07T15:33:53.759Z,16.63
2023-02-07T15:36:36.279Z,15.80
2023-02-07T15:39:09.390Z,9.38
2023-02-07T15:41:39.428Z,10.27
2023-02-07T15:44:23.937Z,9.00
2023-02-07T15:46:55.854Z,11.00
2023-02-07T15:49:34.356Z,10.93
2023-02-07T15:52:09.191Z,12.10
2023-02-07T15:54:42.249Z,11.98
2023-02-07T15:57:21.602Z,13.63
2023-02-07T15:59:56.032Z,11.20
2023-02-07T16:04:58.851Z,11.73
2023-02-07T16:07:30.049Z,13.20
2023-02-07T16:10:18.346Z,10.60
2023-02-07T16:12:53.275Z,10.43
2023-02-07T16:15:34.910Z,9.85
2023-02-07T16:18:06.710Z,12.57
2023-02-07T16:20:38.990Z,13.70
2023-02-07T16:23:12.181Z,9.20
2023-02-07T16:25:44.321Z,11.33
2023-02-07T16:28:18.338Z,11.33
2023-02-07T16:30:50.939Z,8.63
2023-02-07T16:33:21.193Z,10.00
2023-02-07T16:35:51.462Z,10.67
2023-02-07T16:38:21.712Z,12.10
2023-02-07T16:40:52.252Z,12.73
2023-02-07T16:43:32.996Z,8.50
2023-02-07T16:46:06.333Z,12.30
2023-02-07T16:48:36.640Z,12.97
2023-02-07T16:51:07.001Z,9.20
2023-02-07T16:53:37.257Z,11.20
2023-02-07T16:56:07.736Z,17.13
2023-02-07T16:58:37.976Z,14.40
2023-02-07T17:01:10.915Z,10.70
2023-02-07T17:03:41.260Z,19.07
2023-02-07T17:06:13.627Z,11.87
2023-02-07T17:08:43.879Z,11.10
2023-02-07T17:11:17.410Z,8.73
2023-02-07T17:13:47.608Z,12.13
2023-02-07T17:16:20.537Z,15.37
2023-02-07T17:18:51.018Z,15.67
2023-02-07T17:21:22.459Z,9.63
2023-02-07T17:23:53.066Z,11.03
2023-02-07T17:26:26.267Z,20.83
2023-02-07T17:28:57.675Z,11.63
2023-02-07T17:31:32.242Z,19.63
2023-02-07T17:34:02.776Z,29.97
2023-02-07T17:36:33.984Z,65.00
2023-02-07T17:39:04.176Z,83.87
2023-02-07T17:41:34.512Z,114.63
2023-02-07T17:44:04.446Z,49.27
2023-02-07T17:46:36.992Z,96.60
2023-02-07T17:49:07.241Z,70.87
2023-02-07T17:51:37.547Z,49.00
2023-02-07T17:54:07.932Z,43.03
2023-02-07T17:56:38.213Z,35.90
2023-02-07T17:59:13.232Z,24.97
2023-02-07T18:01:45.807Z,33.63
2023-02-07T18:04:15.776Z,26.00
2023-02-07T18:06:46.010Z,30.27
2023-02-07T18:09:20.933Z,21.47
2023-02-07T18:11:51.052Z,20.23
2023-02-07T18:14:21.050Z,20.40
2023-02-07T18:16:54.437Z,27.43
2023-02-07T18:19:24.684Z,22.43
2023-02-07T18:21:54.994Z,21.03
2023-02-07T18:24:24.928Z,23.67
2023-02-07T18:26:55.176Z,25.87
2023-02-07T18:29:25.142Z,26.17
2023-02-07T18:31:58.075Z,28.17
2023-02-07T18:34:28.314Z,39.53
2023-02-07T18:36:58.544Z,31.93
2023-02-07T18:39:28.873Z,34.63
2023-02-07T18:41:59.117Z,31.23
2023-02-07T18:44:29.391Z,27.77
2023-02-07T18:47:02.355Z,26.27
2023-02-07T18:49:32.421Z,31.90
2023-02-07T18:52:02.644Z,23.70
2023-02-07T18:54:33.077Z,21.97
2023-02-07T18:57:03.302Z,23.23
2023-02-07T18:59:34.134Z,30.53
2023-02-07T19:02:07.014Z,26.03
2023-02-07T19:04:37.484Z,20.03
2023-02-07T19:07:07.510Z,21.50
2023-02-07T19:09:37.852Z,20.13
2023-02-07T19:12:09.867Z,23.67
2023-02-07T19:14:41.209Z,21.87
2023-02-07T19:17:15.768Z,17.60
2023-02-07T19:19:45.920Z,21.33
2023-02-07T19:22:21.560Z,23.60
2023-02-07T19:24:56.891Z,23.17
2023-02-07T19:27:26.823Z,26.67
2023-02-07T19:29:57.054Z,38.77
2023-02-07T19:32:29.953Z,34.83
2023-02-07T19:35:00.234Z,30.43
2023-02-07T19:37:30.297Z,27.30
2023-02-07T19:40:00.560Z,37.10
2023-02-07T19:42:30.521Z,24.90
2023-02-07T19:45:00.725Z,25.10
2023-02-07T19:47:33.762Z,13.50
2023-02-07T19:50:04.016Z,21.10
2023-02-07T19:52:34.280Z,20.67
2023-02-07T19:55:05.117Z,18.80
2023-02-07T19:57:36.137Z,18.53
2023-02-07T20:00:07.578Z,29.40
2023-02-07T20:02:40.127Z,30.57
2023-02-07T20:05:10.423Z,30.23
2023-02-07T20:07:40.412Z,27.47
2023-02-07T20:10:11.521Z,21.47
2023-02-07T20:12:41.739Z,15.10
2023-02-07T20:15:13.130Z,17.77
2023-02-07T20:17:45.698Z,16.07
2023-02-07T20:20:17.717Z,24.13
2023-02-07T20:22:47.975Z,23.07
2023-02-07T20:25:18.269Z,24.80
2023-02-07T20:27:48.603Z,21.07
2023-02-07T20:30:18.926Z,19.33
2023-02-07T20:32:51.513Z,20.90
2023-02-07T20:35:22.568Z,22.90
2023-02-07T20:37:52.895Z,22.20
2023-02-07T20:40:23.064Z,19.37
2023-02-07T20:42:53.272Z,23.33
2023-02-07T20:45:23.539Z,20.27
2023-02-07T20:47:56.120Z,20.53
2023-02-07T20:50:26.209Z,22.03
2023-02-07T20:52:56.426Z,30.00
2023-02-07T20:55:27.072Z,27.10
2023-02-07T20:57:57.369Z,24.27
2023-02-07T21:00:27.618Z,22.60
2023-02-07T21:03:00.556Z,22.07
2023-02-07T21:05:30.979Z,18.80
2023-02-07T21:08:01.431Z,20.87
2023-02-07T21:10:32.005Z,22.47
2023-02-07T21:13:02.631Z,15.67
2023-02-07T21:15:32.963Z,18.43
2023-02-07T21:18:05.932Z,20.83
2023-02-07T21:20:36.226Z,19.40
2023-02-07T21:23:07.815Z,16.60
2023-02-07T21:25:38.128Z,22.67
2023-02-07T21:28:09.131Z,15.23
2023-02-07T21:30:39.886Z,19.20
2023-02-07T21:33:12.616Z,13.37
2023-02-07T21:35:42.785Z,14.90
2023-02-07T21:38:13.090Z,15.93
2023-02-07T21:40:43.805Z,13.13
2023-02-07T21:43:16.739Z,10.80
2023-02-07T21:45:47.025Z,13.50
2023-02-07T21:48:20.715Z,10.90
2023-02-07T21:50:50.936Z,18.55
2023-02-07T21:53:21.212Z,14.90
2023-02-07T21:55:51.454Z,30.33
2023-02-07T21:58:21.692Z,31.67
2023-02-07T22:00:51.998Z,36.73
2023-02-07T22:03:25.009Z,24.60
2023-02-07T22:05:55.374Z,46.30
2023-02-07T22:08:25.661Z,73.10
2023-02-07T22:10:55.929Z,109.93
2023-02-07T22:13:26.995Z,56.37
2023-02-07T22:15:57.262Z,64.37
2023-02-07T22:18:30.277Z,49.70
2023-02-07T22:21:06.094Z,87.17
2023-02-07T22:23:36.637Z,32.03
2023-02-07T22:26:07.120Z,41.53
2023-02-07T22:28:37.399Z,18.27
2023-02-07T22:31:12.055Z,18.07
2023-02-07T22:33:51.777Z,20.87
2023-02-07T22:36:23.744Z,44.03
2023-02-07T22:38:54.017Z,32.33
2023-02-07T22:41:24.546Z,16.53
2023-02-07T22:43:54.692Z,14.53
2023-02-07T22:46:26.135Z,35.23
2023-02-07T22:48:59.248Z,80.70
2023-02-07T22:51:32.390Z,77.57
2023-02-07T22:54:05.696Z,72.93
2023-02-07T22:56:36.163Z,75.17
2023-02-07T22:59:06.739Z,101.67
2023-02-07T23:01:39.049Z,45.97
2023-02-07T23:04:15.784Z,43.83
2023-02-07T23:06:45.914Z,42.80
2023-02-07T23:09:16.217Z,34.23
2023-02-07T23:11:46.202Z,40.47
2023-02-07T23:14:16.513Z,30.97
2023-02-07T23:16:46.724Z,34.40
2023-02-07T23:19:20.726Z,30.40
2023-02-07T23:21:50.686Z,30.23
2023-02-07T23:24:20.811Z,66.83
2023-02-07T23:26:50.950Z,67.33
2023-02-07T23:29:21.026Z,38.93
2023-02-07T23:31:51.015Z,85.57
2023-02-07T23:34:23.626Z,73.20
2023-02-07T23:36:53.559Z,42.43
2023-02-07T23:39:23.476Z,61.70
2023-02-07T23:41:53.459Z,52.53
2023-02-07T23:44:23.462Z,35.37
2023-02-07T23:46:53.418Z,25.97
2023-02-07T23:49:25.945Z,25.13
2023-02-07T23:51:55.917Z,24.67
2023-02-07T23:54:25.997Z,27.90
2023-02-07T23:56:55.944Z,19.07
2023-02-07T23:59:26.224Z,11.50
